New Hampton, NH (03256)

2:04 PM EDT on July 29, 2016 (GMT -0400)
Lake Winnipesaukee | | Change Station

Elev 755 ft 43.63 °N, 71.53 °W | Updated 4 seconds ago

Mostly Cloudy
Mostly Cloudy
78.8 °F
Feels Like 81 °F
N
2.5
Wind Variable Wind from ESE
Gusts 4.9 mph

Today
High -- | Low -- °F
--% Chance of Precip.
Yesterday
High -- | Low -- °F
Precip. -- in
Pressure 29.92 in
Visibility 10.0 miles
Clouds Scattered Clouds 8500 ft
Mostly Cloudy 11000 ft
Heat Index 81 °F
Dew Point 66 °F
Humidity 65%
Rainfall 0.00 in
Snow Depth Not available.
5:32 AM 8:11 PM
Waning Crescent, 20% visible
METAR KLCI 291756Z AUTO 07004KT 10SM SCT085 BKN110 26/17 A2989 RMK AO2 SLP131 6//// T02610172 10261 20222 58010 PNO $
Pressure 29.92 in
Visibility 10.0 miles
Clouds Scattered Clouds 8500 ft
Mostly Cloudy 11000 ft
Heat Index 81 °F
Dew Point 66 °F
Humidity 65%
Rainfall 0.00 in
Snow Depth Not available.
5:32 AM 8:11 PM
Waning Crescent, 20% visible
METAR KLCI 291756Z AUTO 07004KT 10SM SCT085 BKN110 26/17 A2989 RMK AO2 SLP131 6//// T02610172 10261 20222 58010 PNO $

10-Day Weather Forecast

Almanac

Astronomy

Jul. 29, 2016 Rise Set
Actual Time
Civil Twilight
Nautical Twilight
Astronomical Twilight
Moon
Length of Visible Light
Length of Day
Tomorrow will be .
, % of the Moon is Illuminated

Today's Extremes

State Highs State Lows

Community

WunderPhotos

Upload Photos

1,928,390 photos uploaded!

WunderBlog® & News

Nearby

Air Quality

  Air Quality AQ Index Pollutant
Not available.

Snow Depth

Station Depth Elevation

Earthquake Activity

City Distance Mag. Time & Date
Minimum magnitude displayed is 2.5.

Coastal Water Temperatures

Place Temperature

Stations

Nearby Weather Stations

Station Location Temp. Windchill Dew Point Humidity Wind Precip. Elev Updated Type
                   

Watches & Warnings

There are currently no watches in effect.